KHFJ

Monett Regional Airport

Monett, Missouri, USA
METAR KHFJ 140235Z AUTO 34012G17KT 4SM RA OVC004 08/08 A2990 RMK AO2 P0001
Observed Flight Rules
Dec-14 @ 02:35 UTC (30 minutes ago) Instrument Flight Rules
Wind Visibility Clouds Conditions
340° at 12 knots
 Gusting to 17 knots
4 miles
  • Overcast at 400' AGL
  • Rain
Temperatures Readings Precipitation
Current 8°C / 46°F
Dewpoint 8°C / 46°F
Humidity 100%
Altimeter 29.9" Hg
Pressure 1013 hPa
Elevation 401
Current Rain 0.01
METAR KHFJ 140235Z AUTO 34012G17KT 4SM RA OVC004 08/08 A2990 RMK AO2 P0001
Observed Flight Rules
Dec-14 @ 02:35 UTC
(30 minutes ago)
LIFR
Wind Visibility
340° at 12 knots
 Gusting to 17 knots
4 miles
Clouds
  • Overcast at 400' AGL
Conditions
  • Rain
Temperature Dewpoint
8°C / 46°F 8°C / 46°F
Humidity Altimeter Pressure
100% 29.9" Hg 1013 hPa
Current Rain
0.01